Erding, Germany

2:13 AM CEST on August 23, 2014 (GMT +0200)
Berglern | Change Station
CLOSE
Current Station
Personal Weather Station
Location: Mitterlern, BAYERN
Elevation: 1424 ft
Nearby Weather Stations

Elev 1424 ft 48.39 °N, 11.92 °E | Updated 1 minute ago

Clear
Clear
50.5 °F
Feels Like 50.5 °F
N
-
Wind Variable Wind from North

Today
High -- | Low -- °F
--% Chance of Precip.
Yesterday
High -- | Low -- °F
Precip. -- in
6:16 AM 8:11 PM
Waning Crescent, 6% visible
Pressure 30.01 in
Visibility -9999.0 miles
Clouds
Dew Point 49 °F
Humidity 95%
Rainfall 0.00 in
Snow Depth Not available.
UV Not available.
Pollen Not available.
Air Quality Not available.
Flu Activity Not available.
METAR EDDM 222350Z 19002KT CAVOK 10/09 Q1016 NOSIG

More Conditions Fewer Conditions

Pressure 30.01 in
Visibility -9999.0 miles
Clouds
Dew Point 49 °F
Humidity 95%
Rainfall 0.00 in
Snow Depth Not available.
UV Not available.
Pollen Not available.
Air Quality Not available.
Flu Activity Not available.
METAR EDDM 222350Z 19002KT CAVOK 10/09 Q1016 NOSIG

More Conditions Fewer Conditions

10-Day Weather Forecast

Almanac

Astronomy

Aug. 23, 2014 Rise Set
Actual Time 6:16 AM CEST 8:11 PM CEST
Civil Twilight 5:43 AM CEST 8:45 PM CEST
Nautical Twilight 5:02 AM CEST 9:26 PM CEST
Astronomical Twilight 4:16 AM CEST 10:11 PM CEST
Moon 4:13 AM CEST 6:48 PM CEST
Length of Visible Light 15h 01m
Length of Day
13h 54m
Tomorrow will be 3m 18s shorter.
Waning Crescent, 6% of the Moon is Illuminated
Aug 22
Waning Crescent
Aug 25
New
Sep 2
First Quarter
Sep 8
Full
Sep 15
Last Quarter

Yesterday's Extremes

Country Highs Country Lows

Community

WunderPhotos

Upload Photos

1,746,317 photos uploaded!

WunderBlogs® & News

By Dr. Jeff Masters
Director of Meteorology, Weather Underground
By Kari Strenfel
Meteorologist, Weather Underground
By Christopher C. Burt
Weather Historian, Weather Underground
August 22, 2014
August 22, 2014
August 22, 2014

Nearby

Snow Depth

Not available.

Earthquake Activity

City Distance Mag. Time & Date
No recent earthquake activity has been reported nearby.
Minimum magnitude displayed is 2.5.

Coastal Water Temperatures

Place Temperature
No Stations Reporting

Nearby Weather Stations